createdAt,value
2016-11-11T00:00:05.367Z,20.62
2016-11-11T00:00:22.116Z,20.59
2016-11-11T00:00:40.064Z,20.65
2016-11-11T00:00:56.776Z,20.61
2016-11-11T00:01:13.485Z,20.61
2016-11-11T00:01:30.220Z,20.68
2016-11-11T00:01:46.917Z,20.62
2016-11-11T00:02:03.651Z,20.65
2016-11-11T00:02:20.360Z,20.62
2016-11-11T00:02:37.169Z,20.64
2016-11-11T00:02:53.902Z,20.64
2016-11-11T00:03:10.657Z,20.65
2016-11-11T00:03:27.356Z,20.59
2016-11-11T00:03:44.082Z,20.68
2016-11-11T00:04:00.785Z,20.57
2016-11-11T00:04:17.475Z,20.65
2016-11-11T00:04:34.217Z,20.68
2016-11-11T00:04:50.925Z,20.61
2016-11-11T00:05:22.113Z,20.64
2016-11-11T00:05:38.814Z,20.69
2016-11-11T00:05:55.515Z,20.64
2016-11-11T00:06:12.218Z,20.62
2016-11-11T00:06:28.933Z,20.62
2016-11-11T00:06:45.661Z,20.54
2016-11-11T00:07:02.367Z,20.53
2016-11-11T00:07:19.069Z,20.62
2016-11-11T00:07:35.772Z,20.64
2016-11-11T00:07:52.476Z,20.65
2016-11-11T00:08:09.913Z,20.69
2016-11-11T00:08:26.620Z,20.61
2016-11-11T00:08:43.349Z,20.51
2016-11-11T00:09:00.060Z,20.53
2016-11-11T00:09:16.768Z,20.5
2016-11-11T00:09:33.468Z,20.4
2016-11-11T00:09:50.173Z,20.47
2016-11-11T00:10:06.865Z,20.54
2016-11-11T00:10:23.584Z,20.5
2016-11-11T00:10:40.291Z,20.53
2016-11-11T00:10:57.749Z,20.62
2016-11-11T00:11:14.483Z,20.5
2016-11-11T00:11:31.227Z,20.5
2016-11-11T00:11:47.944Z,20.42
2016-11-11T00:12:04.698Z,20.56
2016-11-11T00:12:21.583Z,20.47
2016-11-11T00:12:38.581Z,20.54
2016-11-11T00:12:55.313Z,20.5
2016-11-11T00:13:12.039Z,20.51
2016-11-11T00:13:28.740Z,20.46
2016-11-11T00:13:45.460Z,20.46
2016-11-11T00:14:02.205Z,20.54
2016-11-11T00:14:18.934Z,20.51
2016-11-11T00:14:35.875Z,20.61
2016-11-11T00:14:53.120Z,20.53
2016-11-11T00:15:09.869Z,20.65
2016-11-11T00:15:26.641Z,20.62
2016-11-11T00:15:43.388Z,20.64
2016-11-11T00:16:00.130Z,20.62
2016-11-11T00:16:16.857Z,20.61
2016-11-11T00:16:33.583Z,20.5
2016-11-11T00:16:50.443Z,20.61
2016-11-11T00:17:07.141Z,20.59
2016-11-11T00:17:23.913Z,20.65
2016-11-11T00:17:41.344Z,20.57
2016-11-11T00:17:58.067Z,20.51
2016-11-11T00:18:14.791Z,20.47
2016-11-11T00:18:31.490Z,20.5
2016-11-11T00:18:48.253Z,20.53
2016-11-11T00:19:05.010Z,20.5
2016-11-11T00:19:21.748Z,20.42
2016-11-11T00:19:38.459Z,20.42
2016-11-11T00:19:55.216Z,20.53
2016-11-11T00:20:12.445Z,20.42
2016-11-11T00:20:29.165Z,20.35
2016-11-11T00:20:45.909Z,20.53
2016-11-11T00:21:02.642Z,20.46
2016-11-11T00:21:19.381Z,20.5
2016-11-11T00:21:36.136Z,20.43
2016-11-11T00:21:52.846Z,20.5
2016-11-11T00:22:09.560Z,20.57
2016-11-11T00:22:26.267Z,20.54
2016-11-11T00:22:43.010Z,20.54
2016-11-11T00:22:59.725Z,20.5
2016-11-11T00:23:16.442Z,20.49
2016-11-11T00:23:33.168Z,20.54
2016-11-11T00:23:49.881Z,20.4
2016-11-11T00:24:06.610Z,20.54
2016-11-11T00:24:23.320Z,20.53
2016-11-11T00:24:40.057Z,20.61
2016-11-11T00:24:56.773Z,20.49
2016-11-11T00:25:14.026Z,20.59
2016-11-11T00:25:30.781Z,20.59
2016-11-11T00:25:47.503Z,20.64
2016-11-11T00:26:04.216Z,20.65
2016-11-11T00:26:20.954Z,20.65
2016-11-11T00:26:37.680Z,20.57
2016-11-11T00:26:54.405Z,20.62
2016-11-11T00:27:11.138Z,20.61
2016-11-11T00:27:28.077Z,20.62
2016-11-11T00:27:45.307Z,20.66
2016-11-11T00:28:02.042Z,20.62
2016-11-11T00:28:18.769Z,20.56
2016-11-11T00:28:35.522Z,20.65
2016-11-11T00:28:52.252Z,20.57
2016-11-11T00:29:09.498Z,20.68
2016-11-11T00:29:26.232Z,20.61
2016-11-11T00:29:42.948Z,20.61
2016-11-11T00:29:59.688Z,20.62
2016-11-11T00:30:16.430Z,20.65
2016-11-11T00:30:33.155Z,20.56
2016-11-11T00:30:49.895Z,20.59
2016-11-11T00:31:06.620Z,20.62
2016-11-11T00:31:23.355Z,20.57
2016-11-11T00:31:40.056Z,20.64
2016-11-11T00:31:56.789Z,20.64
2016-11-11T00:32:13.547Z,20.51
2016-11-11T00:32:30.314Z,20.47
2016-11-11T00:32:47.162Z,20.47
2016-11-11T00:33:03.904Z,20.54
2016-11-11T00:33:20.664Z,20.54
2016-11-11T00:33:37.418Z,20.43
2016-11-11T00:33:54.159Z,20.38
2016-11-11T00:34:10.854Z,20.54
2016-11-11T00:34:27.589Z,20.43
2016-11-11T00:34:44.315Z,20.4
2016-11-11T00:35:01.045Z,20.54
2016-11-11T00:35:17.832Z,20.53
2016-11-11T00:35:34.564Z,20.42
2016-11-11T00:35:51.285Z,20.51
2016-11-11T00:36:08.021Z,20.51
2016-11-11T00:36:24.784Z,20.4
2016-11-11T00:36:41.519Z,20.49
2016-11-11T00:36:58.235Z,20.49
2016-11-11T00:37:14.955Z,20.51
2016-11-11T00:37:31.695Z,20.37
2016-11-11T00:37:48.425Z,20.51
2016-11-11T00:38:05.206Z,20.37
2016-11-11T00:38:21.946Z,20.43
2016-11-11T00:38:38.687Z,20.46
2016-11-11T00:38:55.423Z,20.53
2016-11-11T00:39:12.154Z,20.43
2016-11-11T00:39:29.408Z,20.47
2016-11-11T00:39:46.125Z,20.51
2016-11-11T00:40:03.371Z,20.46
2016-11-11T00:40:20.084Z,20.53
2016-11-11T00:40:36.848Z,20.57
2016-11-11T00:40:53.543Z,20.57
2016-11-11T00:41:10.785Z,20.46
2016-11-11T00:41:27.512Z,20.57
2016-11-11T00:41:44.743Z,20.51
2016-11-11T00:42:01.472Z,20.49
2016-11-11T00:42:18.208Z,20.42
2016-11-11T00:42:34.936Z,20.46
2016-11-11T00:42:51.739Z,20.43
2016-11-11T00:43:08.464Z,20.42
2016-11-11T00:43:25.198Z,20.4
2016-11-11T00:43:41.892Z,20.38
2016-11-11T00:43:58.645Z,20.34
2016-11-11T00:44:15.408Z,20.37
2016-11-11T00:44:32.127Z,20.38
2016-11-11T00:44:48.842Z,20.38
2016-11-11T00:45:20.079Z,20.5
2016-11-11T00:45:37.344Z,20.42
2016-11-11T00:45:55.104Z,20.5
2016-11-11T00:46:11.807Z,20.51
2016-11-11T00:46:28.532Z,20.43
2016-11-11T00:46:45.780Z,20.38
2016-11-11T00:47:02.469Z,20.34
2016-11-11T00:47:19.208Z,20.42
2016-11-11T00:47:35.931Z,20.38
2016-11-11T00:47:52.892Z,20.35
2016-11-11T00:48:09.610Z,20.33
2016-11-11T00:48:26.843Z,20.42
2016-11-11T00:48:43.579Z,20.43
2016-11-11T00:49:00.304Z,20.51
2016-11-11T00:49:17.023Z,20.42
2016-11-11T00:49:33.816Z,20.43
2016-11-11T00:49:50.571Z,20.57
2016-11-11T00:50:07.292Z,20.46
2016-11-11T00:50:24.044Z,20.43
2016-11-11T00:50:40.802Z,20.51
2016-11-11T00:50:57.532Z,20.47
2016-11-11T00:51:14.338Z,20.42
2016-11-11T00:51:31.077Z,20.46
2016-11-11T00:51:47.785Z,20.42
2016-11-11T00:52:04.724Z,20.47
2016-11-11T00:52:21.441Z,20.47
2016-11-11T00:52:38.180Z,20.43
2016-11-11T00:52:54.898Z,20.47
2016-11-11T00:53:11.601Z,20.43
2016-11-11T00:53:28.362Z,20.47
2016-11-11T00:53:45.093Z,20.43
2016-11-11T00:54:01.815Z,20.37
2016-11-11T00:54:18.571Z,20.46
2016-11-11T00:54:35.296Z,20.43
2016-11-11T00:54:52.050Z,20.27
2016-11-11T00:55:08.828Z,20.26
2016-11-11T00:55:26.100Z,20.28
2016-11-11T00:55:42.858Z,20.28
2016-11-11T00:55:59.592Z,20.24
2016-11-11T00:56:16.322Z,20.28
2016-11-11T00:56:33.585Z,20.3
2016-11-11T00:56:50.310Z,20.31
2016-11-11T00:57:07.074Z,20.35
2016-11-11T00:57:23.788Z,20.3
2016-11-11T00:57:40.505Z,20.26
2016-11-11T00:57:57.226Z,20.13
2016-11-11T00:58:13.967Z,20.13
2016-11-11T00:58:30.674Z,20.28
2016-11-11T00:58:47.394Z,20.24
2016-11-11T00:59:04.117Z,20.13
2016-11-11T00:59:20.835Z,20.09
2016-11-11T00:59:37.568Z,20.15
2016-11-11T00:59:54.323Z,20.15
2016-11-11T01:00:11.048Z,20.2
2016-11-11T01:00:58.978Z,20.12
2016-11-11T01:01:16.216Z,20.24
2016-11-11T01:01:32.913Z,20.13
2016-11-11T01:01:49.617Z,20.12
2016-11-11T01:02:06.330Z,20.18
2016-11-11T01:02:23.039Z,20.13
2016-11-11T01:02:39.770Z,20.15
2016-11-11T01:02:56.585Z,20.24
2016-11-11T01:03:13.305Z,20.15
2016-11-11T01:03:30.035Z,20.15
2016-11-11T01:03:46.807Z,20.09
2016-11-11T01:04:03.526Z,20.1
2016-11-11T01:04:20.265Z,20.15
2016-11-11T01:04:36.991Z,20.15
2016-11-11T01:04:53.735Z,20.26
2016-11-11T01:05:10.983Z,20.18
2016-11-11T01:05:27.683Z,20.19
2016-11-11T01:05:44.429Z,20.26
2016-11-11T01:06:01.150Z,20.19
2016-11-11T01:06:17.886Z,20.24
2016-11-11T01:06:35.061Z,20.15
2016-11-11T01:06:51.789Z,20.28
2016-11-11T01:07:08.512Z,20.24
2016-11-11T01:07:25.244Z,20.3
2016-11-11T01:07:41.973Z,20.27
2016-11-11T01:07:58.727Z,20.26
2016-11-11T01:08:15.465Z,20.27
2016-11-11T01:08:32.191Z,20.31
2016-11-11T01:08:48.915Z,20.24
2016-11-11T01:09:05.659Z,20.27
2016-11-11T01:09:22.375Z,20.26
2016-11-11T01:09:39.136Z,20.18
2016-11-11T01:09:55.855Z,20.16
2016-11-11T01:10:12.569Z,20.09
2016-11-11T01:10:29.261Z,20.1
2016-11-11T01:10:45.961Z,20.13
2016-11-11T01:11:02.719Z,20.23
2016-11-11T01:11:19.440Z,20.13
2016-11-11T01:11:36.160Z,20.16
2016-11-11T01:11:52.912Z,20.15
2016-11-11T01:12:09.602Z,20.2
2016-11-11T01:12:26.330Z,20.27
2016-11-11T01:12:43.033Z,20.2
2016-11-11T01:13:14.353Z,20.16
2016-11-11T01:13:31.050Z,20.31
2016-11-11T01:13:48.285Z,20.24
2016-11-11T01:14:05.009Z,20.27
2016-11-11T01:14:21.712Z,20.27
2016-11-11T01:14:38.444Z,20.26
2016-11-11T01:14:55.185Z,20.26
2016-11-11T01:15:11.922Z,20.33
2016-11-11T01:15:28.657Z,20.3
2016-11-11T01:15:45.427Z,20.33
2016-11-11T01:16:02.167Z,20.34
2016-11-11T01:16:19.392Z,20.27
2016-11-11T01:16:36.149Z,20.38
2016-11-11T01:16:52.885Z,20.31
2016-11-11T01:17:09.620Z,20.37
2016-11-11T01:17:26.348Z,20.26
2016-11-11T01:17:43.104Z,20.33
2016-11-11T01:17:59.829Z,20.33
2016-11-11T01:18:16.582Z,20.26
2016-11-11T01:18:33.321Z,20.33
2016-11-11T01:18:50.027Z,20.24
2016-11-11T01:19:06.797Z,20.26
2016-11-11T01:19:23.502Z,20.27
2016-11-11T01:19:40.240Z,20.2
2016-11-11T01:19:56.957Z,20.16
2016-11-11T01:20:13.677Z,20.23
2016-11-11T01:20:30.395Z,20.24
2016-11-11T01:20:47.119Z,20.27
2016-11-11T01:21:03.832Z,20.27
2016-11-11T01:21:20.534Z,20.31
2016-11-11T01:21:37.271Z,20.3
2016-11-11T01:21:54.025Z,20.31
2016-11-11T01:22:10.748Z,20.27
2016-11-11T01:22:27.479Z,20.27
2016-11-11T01:22:44.199Z,20.35
2016-11-11T01:23:00.948Z,20.19
2016-11-11T01:23:17.679Z,20.28
2016-11-11T01:23:34.916Z,20.27
2016-11-11T01:23:51.648Z,20.27
2016-11-11T01:24:08.425Z,20.19
2016-11-11T01:24:25.173Z,20.28
2016-11-11T01:24:41.913Z,20.27
2016-11-11T01:24:58.653Z,20.28
2016-11-11T01:25:15.439Z,20.24
2016-11-11T01:25:33.188Z,20.24
2016-11-11T01:25:49.923Z,20.15
2016-11-11T01:26:06.639Z,20.13
2016-11-11T01:26:23.363Z,20.13
2016-11-11T01:26:40.098Z,20.08
2016-11-11T01:26:56.849Z,20.16
2016-11-11T01:27:13.581Z,20.13
2016-11-11T01:27:30.296Z,20.1
2016-11-11T01:27:47.024Z,20.16
2016-11-11T01:28:03.775Z,20.09
2016-11-11T01:28:21.024Z,20.08
2016-11-11T01:28:37.773Z,20.03
2016-11-11T01:28:54.502Z,20.15
2016-11-11T01:29:11.252Z,20.13
2016-11-11T01:29:28.027Z,20.08
2016-11-11T01:29:44.741Z,20.03
2016-11-11T01:30:02.022Z,20.1
2016-11-11T01:30:18.729Z,20.05
2016-11-11T01:30:35.446Z,20.01
2016-11-11T01:30:52.178Z,19.88
2016-11-11T01:31:08.904Z,19.98
2016-11-11T01:31:25.643Z,19.94
2016-11-11T01:31:42.381Z,19.9
2016-11-11T01:31:59.133Z,19.86
2016-11-11T01:32:15.885Z,19.87
2016-11-11T01:32:32.608Z,19.91
2016-11-11T01:32:49.412Z,19.87
2016-11-11T01:33:06.127Z,19.87
2016-11-11T01:33:22.873Z,19.94
2016-11-11T01:33:39.634Z,19.9
2016-11-11T01:33:56.343Z,19.94
2016-11-11T01:34:13.049Z,19.98
2016-11-11T01:34:29.779Z,19.93
2016-11-11T01:34:46.513Z,20.01
2016-11-11T01:35:03.252Z,20.06
2016-11-11T01:35:20.035Z,20.08
2016-11-11T01:35:36.774Z,20.05
2016-11-11T01:35:53.494Z,20.01
2016-11-11T01:36:10.232Z,20.03
2016-11-11T01:36:26.972Z,20.05
2016-11-11T01:36:43.720Z,20.09
2016-11-11T01:37:00.446Z,20.06
2016-11-11T01:37:17.235Z,20.05
2016-11-11T01:37:33.951Z,20.08
2016-11-11T01:37:50.656Z,20.08
2016-11-11T01:38:08.039Z,20.05
2016-11-11T01:38:24.766Z,20.03
2016-11-11T01:38:55.962Z,20
2016-11-11T01:39:12.697Z,19.88
2016-11-11T01:39:29.454Z,19.87
2016-11-11T01:39:46.165Z,19.9
2016-11-11T01:40:02.879Z,19.88
2016-11-11T01:40:19.652Z,19.86
2016-11-11T01:40:36.389Z,19.86
2016-11-11T01:40:53.125Z,19.82
2016-11-11T01:41:09.834Z,19.9
2016-11-11T01:41:26.540Z,19.82
2016-11-11T01:41:43.258Z,19.83
2016-11-11T01:41:59.970Z,19.86
2016-11-11T01:42:16.698Z,19.82
2016-11-11T01:42:33.411Z,19.86
2016-11-11T01:42:50.136Z,19.9
2016-11-11T01:43:06.860Z,19.79
2016-11-11T01:43:23.581Z,19.86
2016-11-11T01:43:40.823Z,19.78
2016-11-11T01:43:57.553Z,19.83
2016-11-11T01:44:14.269Z,19.79
2016-11-11T01:44:31.030Z,19.8
2016-11-11T01:44:47.745Z,19.82
2016-11-11T01:45:04.497Z,19.83
2016-11-11T01:45:21.252Z,19.86
2016-11-11T01:45:38.041Z,19.79
2016-11-11T01:45:54.768Z,19.73
2016-11-11T01:46:11.528Z,19.75
2016-11-11T01:46:28.262Z,19.76
2016-11-11T01:46:44.976Z,19.73
2016-11-11T01:47:01.709Z,19.75
2016-11-11T01:47:32.939Z,19.76
2016-11-11T01:47:50.180Z,19.83
2016-11-11T01:48:07.034Z,19.76
2016-11-11T01:48:23.754Z,19.88
2016-11-11T01:48:40.499Z,19.82
2016-11-11T01:48:57.232Z,19.79
2016-11-11T01:49:13.974Z,19.83
2016-11-11T01:49:30.702Z,19.88
2016-11-11T01:49:47.419Z,19.83
2016-11-11T01:50:04.130Z,19.88
2016-11-11T01:50:21.395Z,19.94
2016-11-11T01:50:38.102Z,19.97
2016-11-11T01:50:54.837Z,19.94
2016-11-11T01:51:11.584Z,19.9
2016-11-11T01:51:28.835Z,19.91
2016-11-11T01:51:45.567Z,19.9
2016-11-11T01:52:02.272Z,19.98
2016-11-11T01:52:19.030Z,20
2016-11-11T01:52:35.767Z,20.06
2016-11-11T01:52:52.530Z,19.97
2016-11-11T01:53:09.469Z,19.95
2016-11-11T01:53:26.198Z,19.94
2016-11-11T01:53:43.465Z,20.01
2016-11-11T01:54:00.208Z,20.01
2016-11-11T01:54:16.947Z,20.05
2016-11-11T01:54:33.709Z,20
2016-11-11T01:54:50.440Z,20.01
2016-11-11T01:55:07.174Z,19.9
2016-11-11T01:55:23.937Z,19.98
2016-11-11T01:55:40.658Z,20.05
2016-11-11T01:55:57.398Z,20.01
2016-11-11T01:56:14.109Z,19.98
2016-11-11T01:56:30.817Z,20
2016-11-11T01:56:47.546Z,20.05
2016-11-11T01:57:04.278Z,20.01
2016-11-11T01:57:21.512Z,20.06
2016-11-11T01:57:38.210Z,20.09
2016-11-11T01:57:54.925Z,20.03
2016-11-11T01:58:12.381Z,20.09
2016-11-11T01:58:29.101Z,20.06
2016-11-11T01:58:45.846Z,20.09
2016-11-11T01:59:02.553Z,20.06
2016-11-11T01:59:19.264Z,20.08
2016-11-11T01:59:35.996Z,20.03
2016-11-11T01:59:52.726Z,20.05
2016-11-11T02:00:09.461Z,20.03
2016-11-11T02:00:26.176Z,19.86
2016-11-11T02:00:42.886Z,20.01
2016-11-11T02:00:59.608Z,20.01
2016-11-11T02:01:16.345Z,20.01
2016-11-11T02:01:33.085Z,20.01
2016-11-11T02:01:49.781Z,19.97
2016-11-11T02:02:06.522Z,20.03
2016-11-11T02:02:23.278Z,20
2016-11-11T02:02:39.978Z,19.88
2016-11-11T02:02:56.728Z,20.03
2016-11-11T02:03:13.452Z,19.88
2016-11-11T02:03:31.029Z,19.94
2016-11-11T02:03:47.776Z,19.95
2016-11-11T02:04:04.534Z,19.87
2016-11-11T02:04:21.270Z,19.93
2016-11-11T02:04:38.516Z,19.94
2016-11-11T02:04:55.232Z,19.91
2016-11-11T02:05:11.980Z,19.88
2016-11-11T02:05:29.226Z,19.91
2016-11-11T02:05:45.947Z,19.91
2016-11-11T02:06:02.667Z,20.03
2016-11-11T02:06:19.397Z,19.95
2016-11-11T02:06:36.168Z,19.93
2016-11-11T02:06:53.405Z,19.94
2016-11-11T02:07:10.125Z,20.03
2016-11-11T02:07:26.864Z,20.03
2016-11-11T02:07:43.624Z,20.01
2016-11-11T02:08:00.363Z,20.05
2016-11-11T02:08:17.083Z,20.01
2016-11-11T02:08:33.812Z,20.03
2016-11-11T02:08:50.535Z,20.03
2016-11-11T02:09:07.282Z,20.05
2016-11-11T02:09:24.012Z,20.05
2016-11-11T02:09:40.750Z,20.03
2016-11-11T02:09:57.503Z,20
2016-11-11T02:10:14.255Z,19.98
2016-11-11T02:10:31.006Z,19.94
2016-11-11T02:10:47.733Z,19.9
2016-11-11T02:11:04.453Z,19.95
2016-11-11T02:11:21.171Z,19.94
2016-11-11T02:11:37.911Z,19.91
2016-11-11T02:11:54.645Z,19.86
2016-11-11T02:12:11.367Z,19.82
2016-11-11T02:12:28.085Z,19.9
2016-11-11T02:12:44.835Z,19.78
2016-11-11T02:13:01.583Z,19.83
2016-11-11T02:13:18.333Z,19.88
2016-11-11T02:13:35.625Z,19.86
2016-11-11T02:13:52.394Z,19.88
2016-11-11T02:14:09.140Z,19.87
2016-11-11T02:14:25.859Z,19.82
2016-11-11T02:14:42.588Z,19.83
2016-11-11T02:14:59.335Z,19.82
2016-11-11T02:15:16.088Z,19.83
2016-11-11T02:15:32.810Z,19.83
2016-11-11T02:15:49.514Z,19.83
2016-11-11T02:16:06.252Z,19.73
2016-11-11T02:16:22.968Z,19.83
2016-11-11T02:16:39.700Z,19.82
2016-11-11T02:16:56.417Z,19.82
2016-11-11T02:17:13.139Z,19.73
2016-11-11T02:17:44.347Z,19.75
2016-11-11T02:18:01.073Z,19.78
2016-11-11T02:18:17.899Z,19.71
2016-11-11T02:18:34.622Z,19.75
2016-11-11T02:18:51.352Z,19.73
2016-11-11T02:19:08.088Z,19.78
2016-11-11T02:19:24.802Z,19.69
2016-11-11T02:19:41.528Z,19.72
2016-11-11T02:19:58.257Z,19.76
2016-11-11T02:20:14.987Z,19.65
2016-11-11T02:20:31.733Z,19.65
2016-11-11T02:20:48.761Z,19.63
2016-11-11T02:21:06.048Z,19.71
2016-11-11T02:21:22.796Z,19.68
2016-11-11T02:21:39.530Z,19.65
2016-11-11T02:21:56.275Z,19.68
2016-11-11T02:22:12.985Z,19.71
2016-11-11T02:22:29.701Z,19.75
2016-11-11T02:22:46.421Z,19.68
2016-11-11T02:23:03.138Z,19.78
2016-11-11T02:23:19.880Z,19.65
2016-11-11T02:23:36.609Z,19.73
2016-11-11T02:23:53.329Z,19.72
2016-11-11T02:24:10.030Z,19.75
2016-11-11T02:24:26.743Z,19.75
2016-11-11T02:24:43.439Z,19.73
2016-11-11T02:25:00.152Z,19.75
2016-11-11T02:25:31.364Z,19.73
2016-11-11T02:25:48.099Z,19.69
2016-11-11T02:26:05.360Z,19.75
2016-11-11T02:26:22.080Z,19.76
2016-11-11T02:26:38.816Z,19.72
2016-11-11T02:26:55.554Z,19.76
2016-11-11T02:27:12.287Z,19.75
2016-11-11T02:27:29.017Z,19.75
2016-11-11T02:27:45.744Z,19.8
2016-11-11T02:28:02.672Z,19.71
2016-11-11T02:28:19.390Z,19.78
2016-11-11T02:28:36.102Z,19.73
2016-11-11T02:28:52.840Z,19.76
2016-11-11T02:29:09.557Z,19.75
2016-11-11T02:29:26.272Z,19.79
2016-11-11T02:29:43.008Z,19.72
2016-11-11T02:29:59.794Z,19.78
2016-11-11T02:30:16.719Z,19.75
2016-11-11T02:30:33.934Z,19.72
2016-11-11T02:30:50.652Z,19.78
2016-11-11T02:31:07.378Z,19.76
2016-11-11T02:31:24.102Z,19.73
2016-11-11T02:31:40.840Z,19.82
2016-11-11T02:31:57.571Z,19.8
2016-11-11T02:32:14.347Z,19.76
2016-11-11T02:32:31.058Z,19.79
2016-11-11T02:32:47.763Z,19.76
2016-11-11T02:33:04.536Z,19.73
2016-11-11T02:33:21.279Z,19.72
2016-11-11T02:33:38.007Z,19.72
2016-11-11T02:33:55.318Z,19.8
2016-11-11T02:34:12.542Z,19.8
2016-11-11T02:34:29.259Z,19.83
2016-11-11T02:34:45.970Z,19.78
2016-11-11T02:35:33.939Z,19.86
2016-11-11T02:35:50.667Z,19.8
2016-11-11T02:36:07.383Z,19.82
2016-11-11T02:36:24.116Z,19.83
2016-11-11T02:36:40.857Z,19.8
2016-11-11T02:37:12.085Z,19.72
2016-11-11T02:37:28.842Z,19.75
2016-11-11T02:37:45.607Z,19.79
2016-11-11T02:38:02.320Z,19.8
2016-11-11T02:38:19.050Z,19.76
2016-11-11T02:38:35.786Z,19.82
2016-11-11T02:38:52.503Z,19.82
2016-11-11T02:39:09.726Z,19.8
2016-11-11T02:39:26.444Z,19.79
2016-11-11T02:39:43.223Z,19.82
2016-11-11T02:39:59.964Z,19.83
2016-11-11T02:40:16.703Z,19.82
2016-11-11T02:40:33.400Z,19.73
2016-11-11T02:40:50.137Z,19.83
2016-11-11T02:41:06.856Z,19.75
2016-11-11T02:41:23.600Z,19.8
2016-11-11T02:41:40.334Z,19.86
2016-11-11T02:41:57.042Z,19.83
2016-11-11T02:42:13.771Z,19.83
2016-11-11T02:42:30.510Z,19.86
2016-11-11T02:42:47.232Z,19.88
2016-11-11T02:43:03.941Z,19.82
2016-11-11T02:43:21.165Z,19.87
2016-11-11T02:43:37.906Z,19.83
2016-11-11T02:43:54.628Z,19.83
2016-11-11T02:44:11.364Z,19.78
2016-11-11T02:44:28.110Z,19.8
2016-11-11T02:44:44.811Z,19.86
2016-11-11T02:45:01.549Z,19.9
2016-11-11T02:45:18.297Z,19.87
2016-11-11T02:45:35.043Z,19.86
2016-11-11T02:45:51.790Z,19.87
2016-11-11T02:46:08.552Z,19.86
2016-11-11T02:46:25.263Z,19.86
2016-11-11T02:46:42.023Z,19.88
2016-11-11T02:46:58.782Z,19.86
2016-11-11T02:47:15.496Z,19.88
2016-11-11T02:47:32.195Z,19.91
2016-11-11T02:47:48.936Z,19.86
2016-11-11T02:48:05.771Z,19.83
2016-11-11T02:48:22.527Z,19.79
2016-11-11T02:48:39.270Z,19.68
2016-11-11T02:48:55.996Z,19.72
2016-11-11T02:49:12.735Z,19.75
2016-11-11T02:49:29.459Z,19.79
2016-11-11T02:50:00.697Z,19.76
2016-11-11T02:50:17.433Z,19.75
2016-11-11T02:50:34.179Z,19.75
2016-11-11T02:50:50.886Z,19.86
2016-11-11T02:51:07.600Z,19.73
2016-11-11T02:51:24.360Z,19.79
2016-11-11T02:51:41.137Z,19.73
2016-11-11T02:51:57.866Z,19.76
2016-11-11T02:52:14.593Z,19.72
2016-11-11T02:52:31.324Z,19.75
2016-11-11T02:52:48.061Z,19.71
2016-11-11T02:53:04.776Z,19.73
2016-11-11T02:53:21.486Z,19.73
2016-11-11T02:53:38.273Z,19.69
2016-11-11T02:53:54.992Z,19.78
2016-11-11T02:54:11.720Z,19.72
2016-11-11T02:54:28.456Z,19.86
2016-11-11T02:54:45.165Z,19.76
2016-11-11T02:55:01.877Z,19.76
2016-11-11T02:55:18.618Z,19.72
2016-11-11T02:55:35.332Z,19.72
2016-11-11T02:55:52.096Z,19.82
2016-11-11T02:56:08.801Z,19.75
2016-11-11T02:56:26.087Z,19.8
2016-11-11T02:56:42.832Z,19.82
2016-11-11T02:56:59.554Z,19.82
2016-11-11T02:57:16.289Z,19.82
2016-11-11T02:57:33.016Z,19.75
2016-11-11T02:57:49.739Z,19.83
2016-11-11T02:58:06.997Z,19.82
2016-11-11T02:58:23.695Z,19.87
2016-11-11T02:58:40.472Z,19.88
2016-11-11T02:58:57.198Z,19.8
2016-11-11T02:59:13.935Z,19.76
2016-11-11T02:59:30.650Z,19.8
2016-11-11T02:59:47.391Z,19.73
2016-11-11T03:00:04.126Z,19.8
2016-11-11T03:00:20.852Z,19.73
2016-11-11T03:00:41.328Z,19.79
2016-11-11T03:00:58.037Z,19.69
2016-11-11T03:01:15.262Z,19.75
2016-11-11T03:01:32.016Z,19.73
2016-11-11T03:01:48.743Z,19.73
2016-11-11T03:02:05.995Z,19.68
2016-11-11T03:02:23.227Z,19.76
2016-11-11T03:02:39.959Z,19.79
2016-11-11T03:02:56.706Z,19.64
2016-11-11T03:03:13.440Z,19.6
2016-11-11T03:03:30.180Z,19.61
2016-11-11T03:03:46.902Z,19.61
2016-11-11T03:04:03.664Z,19.55
2016-11-11T03:04:20.410Z,19.57
2016-11-11T03:04:37.158Z,19.57
2016-11-11T03:04:53.881Z,19.43
2016-11-11T03:05:10.584Z,19.4
2016-11-11T03:05:27.304Z,19.43
2016-11-11T03:05:44.025Z,19.48
2016-11-11T03:06:00.754Z,19.5
2016-11-11T03:06:17.472Z,19.36
2016-11-11T03:06:34.238Z,19.46
2016-11-11T03:06:50.968Z,19.48
2016-11-11T03:07:07.707Z,19.46
2016-11-11T03:07:24.501Z,19.38
2016-11-11T03:07:41.225Z,19.46
2016-11-11T03:07:57.965Z,19.53
2016-11-11T03:08:15.199Z,19.46
2016-11-11T03:08:31.949Z,19.45
2016-11-11T03:09:19.912Z,19.36
2016-11-11T03:09:36.663Z,19.43
2016-11-11T03:09:53.371Z,19.42
2016-11-11T03:10:10.141Z,19.46
2016-11-11T03:10:26.860Z,19.48
2016-11-11T03:10:43.601Z,19.5
2016-11-11T03:11:00.335Z,19.46
2016-11-11T03:11:17.033Z,19.51
2016-11-11T03:11:33.746Z,19.45
2016-11-11T03:11:50.470Z,19.5
2016-11-11T03:12:07.206Z,19.43
2016-11-11T03:12:23.914Z,19.43
2016-11-11T03:12:40.607Z,19.43
2016-11-11T03:12:57.339Z,19.43
2016-11-11T03:13:14.067Z,19.58
2016-11-11T03:13:30.825Z,19.58
2016-11-11T03:13:47.557Z,19.42
2016-11-11T03:14:04.325Z,19.54
2016-11-11T03:14:21.558Z,19.46
2016-11-11T03:14:38.775Z,19.46
2016-11-11T03:14:55.526Z,19.39
2016-11-11T03:15:12.250Z,19.36
2016-11-11T03:15:29.686Z,19.33
2016-11-11T03:15:46.448Z,19.28
2016-11-11T03:16:03.173Z,19.27
2016-11-11T03:16:19.906Z,19.4
2016-11-11T03:16:36.617Z,19.33
2016-11-11T03:16:53.329Z,19.28
2016-11-11T03:17:10.053Z,19.36
2016-11-11T03:17:26.779Z,19.35
2016-11-11T03:17:43.482Z,19.33
2016-11-11T03:18:00.211Z,19.36
2016-11-11T03:18:16.972Z,19.32
2016-11-11T03:18:33.674Z,19.36
2016-11-11T03:18:50.406Z,19.35
2016-11-11T03:19:07.137Z,19.4
2016-11-11T03:19:23.820Z,19.39
2016-11-11T03:19:40.557Z,19.45
2016-11-11T03:19:57.279Z,19.5
2016-11-11T03:20:14.013Z,19.46
2016-11-11T03:20:30.733Z,19.39
2016-11-11T03:20:47.489Z,19.46
2016-11-11T03:21:04.216Z,19.35
2016-11-11T03:21:20.932Z,19.45
2016-11-11T03:21:37.678Z,19.43
2016-11-11T03:21:54.417Z,19.46
2016-11-11T03:22:11.124Z,19.53
2016-11-11T03:22:27.838Z,19.48
2016-11-11T03:22:44.569Z,19.48
2016-11-11T03:23:01.907Z,19.4
2016-11-11T03:23:18.619Z,19.55
2016-11-11T03:23:35.328Z,19.54
2016-11-11T03:23:52.051Z,19.55
2016-11-11T03:24:08.808Z,19.55
2016-11-11T03:24:26.055Z,19.5
2016-11-11T03:24:42.771Z,19.54
2016-11-11T03:24:59.508Z,19.54
2016-11-11T03:25:16.214Z,19.54
2016-11-11T03:25:32.939Z,19.57
2016-11-11T03:25:49.665Z,19.6
2016-11-11T03:26:06.427Z,19.48
2016-11-11T03:26:23.148Z,19.58
2016-11-11T03:26:39.861Z,19.68
2016-11-11T03:26:56.583Z,19.58
2016-11-11T03:27:13.308Z,19.64
2016-11-11T03:27:30.037Z,19.63
2016-11-11T03:27:46.734Z,19.61
2016-11-11T03:28:03.564Z,19.61
2016-11-11T03:28:20.509Z,19.61
2016-11-11T03:28:37.745Z,19.64
2016-11-11T03:28:54.471Z,19.61
2016-11-11T03:29:11.219Z,19.51
2016-11-11T03:29:28.021Z,19.51
2016-11-11T03:29:44.734Z,19.48
2016-11-11T03:30:01.467Z,19.5
2016-11-11T03:30:18.165Z,19.46
2016-11-11T03:30:34.883Z,19.5
2016-11-11T03:30:51.606Z,19.45
2016-11-11T03:31:08.368Z,19.45
2016-11-11T03:31:25.116Z,19.45
2016-11-11T03:31:41.854Z,19.32
2016-11-11T03:31:58.688Z,19.35
2016-11-11T03:32:15.527Z,19.46
2016-11-11T03:32:32.264Z,19.33
2016-11-11T03:32:49.017Z,19.42
2016-11-11T03:33:05.857Z,19.36
2016-11-11T03:33:22.572Z,19.28
2016-11-11T03:33:39.267Z,19.39
2016-11-11T03:33:55.982Z,19.4
2016-11-11T03:34:12.730Z,19.38
2016-11-11T03:34:29.444Z,19.35
2016-11-11T03:34:46.170Z,19.4
2016-11-11T03:35:02.903Z,19.31
2016-11-11T03:35:19.617Z,19.39
2016-11-11T03:35:36.338Z,19.45
2016-11-11T03:35:53.065Z,19.35
2016-11-11T03:36:09.779Z,19.38
2016-11-11T03:36:26.487Z,19.36
2016-11-11T03:36:43.695Z,19.42
2016-11-11T03:37:00.403Z,19.33
2016-11-11T03:37:17.105Z,19.32
2016-11-11T03:37:33.831Z,19.42
2016-11-11T03:37:50.558Z,19.31
2016-11-11T03:38:07.282Z,19.36
2016-11-11T03:38:24.044Z,19.28
2016-11-11T03:38:40.780Z,19.4
2016-11-11T03:38:57.496Z,19.36
2016-11-11T03:39:14.220Z,19.46
2016-11-11T03:39:30.917Z,19.38
2016-11-11T03:39:47.645Z,19.48
2016-11-11T03:40:04.380Z,19.33
2016-11-11T03:40:21.121Z,19.33
2016-11-11T03:40:37.873Z,19.33